Time;durP1;ratioP1;P1;durP2;ratioP2;P2;SDS_P1;SDS_P2;PMS_P1;PMS_P2;Temp;Humidity;BMP_temperature;BMP_pressure;BME280_temperature;BME280_humidity;BME280_pressure;Samples;Min_cycle;Max_cycle;Signal;HPM_P1;HPM_P2
2023/12/18 00:00:16;;;;;;;6.60;1.95;;;12.80;99.90;;;;;;5111042;27;20488;-80
2023/12/18 00:02:42;;;;;;;3.17;1.38;;;12.80;99.90;;;;;;5130972;27;20110;-80
2023/12/18 00:05:09;;;;;;;4.82;1.30;;;12.90;99.90;;;;;;5112358;27;20024;-80
2023/12/18 00:07:34;;;;;;;3.38;1.20;;;12.90;99.90;;;;;;5130017;27;20282;-80
2023/12/18 00:10:00;;;;;;;3.33;1.02;;;12.90;99.90;;;;;;5130677;27;20445;-81
2023/12/18 00:12:26;;;;;;;5.35;1.13;;;12.90;99.90;;;;;;5111343;28;20043;-81
2023/12/18 00:14:52;;;;;;;3.45;1.13;;;12.90;99.90;;;;;;5130662;28;20019;-81
2023/12/18 00:17:18;;;;;;;2.42;0.98;;;13.00;99.90;;;;;;5129667;28;20107;-81
2023/12/18 00:19:44;;;;;;;2.80;0.90;;;13.00;99.90;;;;;;5130340;28;20047;-80
2023/12/18 00:22:10;;;;;;;2.88;1.13;;;13.00;99.90;;;;;;5131532;28;20084;-81
2023/12/18 00:24:35;;;;;;;3.17;0.90;;;13.00;99.90;;;;;;5131453;28;20055;-81
2023/12/18 00:27:01;;;;;;;3.42;1.05;;;13.00;99.90;;;;;;5132000;28;20024;-81
2023/12/18 00:29:27;;;;;;;4.22;1.45;;;13.00;99.90;;;;;;5130546;28;20020;-80
2023/12/18 00:31:53;;;;;;;1.90;0.90;;;13.00;99.90;;;;;;5131050;28;20028;-80
2023/12/18 00:34:18;;;;;;;2.10;1.20;;;13.00;99.90;;;;;;5129937;28;20031;-81
2023/12/18 00:36:44;;;;;;;2.45;0.82;;;12.90;99.90;;;;;;5112659;28;20023;-81
2023/12/18 00:39:11;;;;;;;1.63;0.90;;;12.90;99.90;;;;;;5130655;28;20027;-82
2023/12/18 00:41:37;;;;;;;2.67;0.80;;;12.90;99.90;;;;;;5130626;28;20333;-83
2023/12/18 00:44:03;;;;;;;2.60;0.98;;;13.00;99.90;;;;;;5131180;28;20045;-84
2023/12/18 00:46:29;;;;;;;3.67;0.88;;;13.10;99.90;;;;;;5130727;28;20024;-84
2023/12/18 00:48:55;;;;;;;1.73;0.95;;;13.10;99.90;;;;;;5131116;28;20034;-82
2023/12/18 00:51:20;;;;;;;2.42;0.93;;;13.10;99.90;;;;;;5130415;28;20026;-82
2023/12/18 00:53:46;;;;;;;2.97;0.85;;;13.10;99.90;;;;;;5112925;28;20031;-83
2023/12/18 00:56:12;;;;;;;3.75;0.90;;;13.20;99.90;;;;;;5131099;28;20167;-81
2023/12/18 00:58:38;;;;;;;1.90;0.82;;;13.20;99.90;;;;;;5130651;28;20210;-81
2023/12/18 01:01:04;;;;;;;2.15;0.80;;;13.30;99.90;;;;;;5130385;28;20488;-81
2023/12/18 01:03:31;;;;;;;2.30;0.90;;;13.30;99.90;;;;;;5130617;28;20027;-81
2023/12/18 01:05:56;;;;;;;1.60;0.80;;;13.30;99.90;;;;;;5131330;28;20028;-81
2023/12/18 01:08:22;;;;;;;2.60;0.70;;;13.30;99.90;;;;;;5130489;28;20033;-82
2023/12/18 01:10:48;;;;;;;1.50;0.80;;;13.30;99.90;;;;;;5095346;27;20023;-83
2023/12/18 01:13:14;;;;;;;4.05;0.85;;;13.30;99.90;;;;;;5134397;27;20063;-82
2023/12/18 01:15:39;;;;;;;1.90;0.82;;;13.30;99.90;;;;;;5133559;27;20023;-81
2023/12/18 01:18:05;;;;;;;1.08;0.68;;;13.30;99.90;;;;;;5134638;27;20023;-81
2023/12/18 01:20:31;;;;;;;1.45;0.50;;;13.30;99.90;;;;;;5133769;27;20240;-81
2023/12/18 01:22:57;;;;;;;6.10;1.10;;;13.30;99.90;;;;;;5134323;27;20360;-82
2023/12/18 01:25:22;;;;;;;1.23;0.70;;;13.30;99.90;;;;;;5135141;27;20020;-82
2023/12/18 01:27:48;;;;;;;2.10;0.50;;;13.30;99.90;;;;;;5116281;27;20156;-81
2023/12/18 01:30:14;;;;;;;0.95;0.65;;;13.40;99.90;;;;;;5134545;27;20035;-81
2023/12/18 01:32:40;;;;;;;0.60;0.55;;;13.30;99.90;;;;;;5135455;27;20447;-81
2023/12/18 01:35:06;;;;;;;2.15;0.55;;;13.40;99.90;;;;;;5135721;27;20023;-81
2023/12/18 01:37:32;;;;;;;1.23;0.38;;;13.40;99.90;;;;;;5136458;27;20058;-81
2023/12/18 01:39:57;;;;;;;2.30;0.60;;;13.40;99.90;;;;;;5135417;27;20066;-81
2023/12/18 01:42:23;;;;;;;0.90;0.65;;;13.40;99.90;;;;;;5134359;27;20039;-82
2023/12/18 01:44:49;;;;;;;1.88;0.82;;;13.50;99.90;;;;;;5135099;27;20456;-82
2023/12/18 01:47:16;;;;;;;1.08;0.70;;;13.40;99.90;;;;;;5134148;27;20083;-82
2023/12/18 01:49:42;;;;;;;2.50;0.60;;;13.50;99.90;;;;;;5115043;27;20031;-82
2023/12/18 01:52:08;;;;;;;0.70;0.32;;;13.50;99.90;;;;;;5134331;27;20023;-83
2023/12/18 01:54:34;;;;;;;1.48;0.60;;;13.40;99.90;;;;;;5133174;27;20023;-82
2023/12/18 01:57:02;;;;;;;1.02;0.57;;;13.50;99.90;;;;;;5134245;27;20125;-82
2023/12/18 01:59:29;;;;;;;2.13;0.65;;;13.40;99.90;;;;;;5133338;27;20449;-81
2023/12/18 02:01:55;;;;;;;0.98;0.50;;;13.40;99.90;;;;;;5115411;27;20106;-81
2023/12/18 02:04:22;;;;;;;2.05;0.75;;;13.40;99.90;;;;;;5115065;27;20114;-80
2023/12/18 02:06:49;;;;;;;2.00;0.65;;;13.40;99.90;;;;;;5133225;27;20016;-80
2023/12/18 02:09:15;;;;;;;2.65;0.50;;;13.40;99.90;;;;;;5133395;27;20027;-81
2023/12/18 02:11:45;;;;;;;1.13;0.50;;;13.40;99.90;;;;;;5133211;27;20139;-80
2023/12/18 02:14:12;;;;;;;1.42;0.50;;;13.40;99.90;;;;;;5133249;27;20050;-80
2023/12/18 02:16:38;;;;;;;1.33;0.47;;;13.40;99.90;;;;;;5132868;27;20026;-81
2023/12/18 02:19:03;;;;;;;2.75;0.70;;;13.40;99.90;;;;;;5133143;27;20023;-80
2023/12/18 02:21:29;;;;;;;1.48;0.52;;;13.40;99.90;;;;;;5114236;27;20058;-81
2023/12/18 02:23:55;;;;;;;1.60;0.68;;;13.40;99.90;;;;;;5133054;27;20356;-81
2023/12/18 02:26:21;;;;;;;1.20;0.65;;;13.40;99.90;;;;;;5133403;27;20083;-81
2023/12/18 02:28:47;;;;;;;0.60;0.50;;;13.40;99.90;;;;;;5132789;27;20464;-81
2023/12/18 02:31:14;;;;;;;1.65;0.40;;;13.40;99.90;;;;;;5132971;27;20028;-81
2023/12/18 02:33:41;;;;;;;1.33;0.50;;;13.40;99.90;;;;;;5133478;27;20498;-82
2023/12/18 02:36:06;;;;;;;1.58;0.75;;;13.40;99.90;;;;;;5133892;27;20027;-81
2023/12/18 02:38:32;;;;;;;1.92;0.50;;;13.50;99.90;;;;;;5114453;27;20030;-82
2023/12/18 02:40:58;;;;;;;1.95;0.73;;;13.50;99.90;;;;;;5133053;27;20019;-82
2023/12/18 02:43:23;;;;;;;1.13;0.60;;;13.50;99.90;;;;;;5133909;27;20210;-82
2023/12/18 02:45:49;;;;;;;2.20;0.77;;;13.50;99.90;;;;;;5133030;27;20130;-82
2023/12/18 02:48:15;;;;;;;1.08;0.50;;;13.50;99.90;;;;;;5132733;27;20075;-82
2023/12/18 02:50:41;;;;;;;1.13;0.40;;;13.40;99.90;;;;;;5132864;27;20044;-82
2023/12/18 02:53:08;;;;;;;1.52;0.60;;;13.40;99.90;;;;;;5132444;27;20034;-82
2023/12/18 02:55:34;;;;;;;0.77;0.40;;;13.40;99.90;;;;;;5132602;27;20480;-82
2023/12/18 02:57:59;;;;;;;2.83;0.75;;;13.40;99.90;;;;;;5132500;27;20106;-82
2023/12/18 03:00:25;;;;;;;1.88;0.65;;;13.40;99.90;;;;;;5133070;27;20051;-81
2023/12/18 03:02:51;;;;;;;1.88;0.57;;;13.40;99.90;;;;;;5133402;27;20032;-82
2023/12/18 03:05:17;;;;;;;1.40;0.60;;;13.40;99.90;;;;;;5133061;27;20027;-81
2023/12/18 03:07:42;;;;;;;0.82;0.60;;;13.50;99.90;;;;;;5132501;27;20030;-82
2023/12/18 03:10:08;;;;;;;0.70;0.45;;;13.40;99.90;;;;;;5114449;27;20023;-82
2023/12/18 03:12:34;;;;;;;2.47;0.30;;;13.50;99.90;;;;;;5132100;27;20043;-81
2023/12/18 03:15:00;;;;;;;2.65;0.55;;;13.50;99.90;;;;;;5114686;27;20421;-81
2023/12/18 03:17:25;;;;;;;0.47;0.40;;;13.50;99.90;;;;;;5132882;27;20019;-81
2023/12/18 03:19:51;;;;;;;0.70;0.30;;;13.50;99.90;;;;;;5132200;27;20372;-81
2023/12/18 03:22:17;;;;;;;1.67;0.50;;;13.50;99.90;;;;;;5132338;27;20038;-81
2023/12/18 03:24:43;;;;;;;1.77;0.45;;;13.50;99.90;;;;;;5132364;27;20056;-82
2023/12/18 03:27:09;;;;;;;1.80;0.60;;;13.60;99.90;;;;;;5132370;27;20368;-80
2023/12/18 03:29:35;;;;;;;0.85;0.38;;;13.50;99.90;;;;;;5113695;27;20031;-80
2023/12/18 03:32:02;;;;;;;2.03;0.50;;;13.50;99.90;;;;;;5113298;27;20143;-81
2023/12/18 03:34:28;;;;;;;0.57;0.40;;;13.50;99.90;;;;;;5131307;27;20035;-81
2023/12/18 03:36:54;;;;;;;0.82;0.30;;;13.50;99.90;;;;;;5132159;27;20042;-81
2023/12/18 03:39:19;;;;;;;1.35;0.43;;;13.50;99.90;;;;;;5131936;27;20113;-80
2023/12/18 03:41:45;;;;;;;1.30;0.50;;;13.50;99.90;;;;;;5112268;27;20353;-80
2023/12/18 03:44:11;;;;;;;3.70;0.60;;;13.50;99.90;;;;;;5131257;27;20420;-81
2023/12/18 03:46:36;;;;;;;0.77;0.35;;;13.60;99.90;;;;;;5130686;27;20146;-79
2023/12/18 03:49:02;;;;;;;0.47;0.20;;;13.60;99.90;;;;;;5131396;27;20055;-80
2023/12/18 03:51:28;;;;;;;1.13;0.40;;;13.60;99.90;;;;;;5112378;27;20435;-80
2023/12/18 03:53:53;;;;;;;1.42;0.60;;;13.60;99.90;;;;;;5112342;27;20114;-80
2023/12/18 03:56:19;;;;;;;0.52;0.38;;;13.60;99.90;;;;;;5131210;27;20464;-80
2023/12/18 03:58:45;;;;;;;0.32;0.30;;;13.60;99.90;;;;;;5112115;27;20167;-79
2023/12/18 04:01:10;;;;;;;0.43;0.40;;;13.60;99.90;;;;;;5139555;27;20476;-80
2023/12/18 04:03:37;;;;;;;1.80;0.68;;;13.60;99.90;;;;;;5150113;27;20060;-80
2023/12/18 04:06:07;;;;;;;1.77;0.40;;;13.60;99.90;;;;;;5140847;27;20118;-80
2023/12/18 04:08:33;;;;;;;1.75;0.45;;;13.60;99.90;;;;;;5132554;27;20038;-80
2023/12/18 04:10:58;;;;;;;0.52;0.47;;;13.60;99.90;;;;;;5131525;27;20102;-80
2023/12/18 04:13:24;;;;;;;2.35;0.50;;;13.60;99.90;;;;;;5131081;27;20032;-79
2023/12/18 04:15:50;;;;;;;1.67;0.40;;;13.60;99.90;;;;;;5130746;28;20091;-81
2023/12/18 04:18:15;;;;;;;1.63;0.45;;;13.60;99.90;;;;;;5130819;28;20038;-80
2023/12/18 04:20:41;;;;;;;0.80;0.40;;;13.60;99.90;;;;;;5130825;28;20326;-81
2023/12/18 04:23:07;;;;;;;0.77;0.47;;;13.60;99.90;;;;;;5131123;28;20468;-81
2023/12/18 04:25:34;;;;;;;0.82;0.47;;;13.60;99.90;;;;;;5130608;28;20038;-79
2023/12/18 04:27:59;;;;;;;0.95;0.40;;;13.60;99.90;;;;;;5112292;28;20034;-81
2023/12/18 04:30:25;;;;;;;0.30;0.30;;;13.60;99.90;;;;;;5130689;28;20023;-80
2023/12/18 04:32:51;;;;;;;1.38;0.40;;;13.50;99.90;;;;;;5130218;28;20038;-80
2023/12/18 04:35:16;;;;;;;0.85;0.20;;;13.50;99.90;;;;;;5131137;28;20388;-80
2023/12/18 04:37:42;;;;;;;0.30;0.30;;;13.60;99.90;;;;;;5130443;28;20347;-80
2023/12/18 04:40:09;;;;;;;1.80;0.35;;;13.50;99.90;;;;;;5130898;28;20027;-79
2023/12/18 04:42:35;;;;;;;0.70;0.40;;;13.60;99.90;;;;;;5111586;28;20032;-80
2023/12/18 04:45:00;;;;;;;0.55;0.30;;;13.60;99.90;;;;;;5130495;28;20023;-80
2023/12/18 04:47:26;;;;;;;0.95;0.38;;;13.60;99.90;;;;;;5133510;27;20057;-80
2023/12/18 04:49:52;;;;;;;0.43;0.32;;;13.60;99.90;;;;;;5133951;27;20035;-79
2023/12/18 04:52:17;;;;;;;1.13;0.35;;;13.60;99.90;;;;;;5134866;27;20034;-80
2023/12/18 04:54:43;;;;;;;0.93;0.38;;;13.60;99.90;;;;;;5134505;27;20084;-80
2023/12/18 04:57:09;;;;;;;0.30;0.30;;;13.60;99.90;;;;;;5135426;27;20113;-80
2023/12/18 04:59:35;;;;;;;1.02;0.20;;;13.60;99.90;;;;;;5134618;27;20475;-81
2023/12/18 05:02:00;;;;;;;0.25;0.22;;;13.60;99.90;;;;;;5117081;27;20046;-81
2023/12/18 05:04:26;;;;;;;1.00;0.25;;;13.50;99.90;;;;;;5116832;27;20069;-81
2023/12/18 05:06:52;;;;;;;2.72;0.60;;;13.50;99.90;;;;;;5135159;27;20027;-80
2023/12/18 05:09:18;;;;;;;0.35;0.22;;;13.50;99.90;;;;;;5135171;27;20099;-80
2023/12/18 05:11:43;;;;;;;0.60;0.20;;;13.50;99.90;;;;;;5133795;27;20126;-80
2023/12/18 05:14:09;;;;;;;0.25;0.20;;;13.50;99.90;;;;;;5134253;27;20114;-80
2023/12/18 05:16:35;;;;;;;1.95;0.30;;;13.50;99.90;;;;;;5133946;27;20110;-80
2023/12/18 05:19:00;;;;;;;1.80;0.43;;;13.60;99.90;;;;;;5134462;27;20052;-80
2023/12/18 05:21:26;;;;;;;0.73;0.32;;;13.60;99.90;;;;;;5115996;27;20079;-80
2023/12/18 05:23:54;;;;;;;1.30;0.57;;;13.60;99.90;;;;;;5134059;27;20743;-80
2023/12/18 05:26:19;;;;;;;1.42;0.30;;;13.50;99.90;;;;;;5134770;27;20030;-81
2023/12/18 05:28:45;;;;;;;1.75;0.50;;;13.50;99.90;;;;;;5133747;27;20027;-81
2023/12/18 05:31:11;;;;;;;0.10;0.10;;;13.50;99.90;;;;;;5116015;27;20027;-81
2023/12/18 05:33:37;;;;;;;1.20;1.10;;;13.40;99.90;;;;;;5133422;27;20073;-80
2023/12/18 05:36:03;;;;;;;1.15;0.40;;;13.40;99.90;;;;;;5115910;27;20511;-81
2023/12/18 05:38:29;;;;;;;1.25;0.35;;;13.40;99.90;;;;;;5134109;27;20050;-80
2023/12/18 05:40:54;;;;;;;0.22;0.17;;;13.40;99.90;;;;;;5133732;27;20106;-79
2023/12/18 05:43:20;;;;;;;0.68;0.35;;;13.40;99.90;;;;;;5134327;27;20428;-79
2023/12/18 05:45:46;;;;;;;0.95;0.30;;;13.40;99.90;;;;;;5133602;27;20027;-79
2023/12/18 05:48:12;;;;;;;0.52;0.30;;;13.30;99.90;;;;;;5133696;27;20088;-79
2023/12/18 05:50:37;;;;;;;0.43;0.30;;;13.30;99.90;;;;;;5133187;27;20477;-80
2023/12/18 05:53:03;;;;;;;0.40;0.40;;;13.40;99.90;;;;;;5115309;27;20113;-79
2023/12/18 05:55:29;;;;;;;0.50;0.25;;;13.40;99.90;;;;;;5133770;27;20078;-79
2023/12/18 05:57:55;;;;;;;1.20;0.20;;;13.40;99.90;;;;;;5131893;27;20038;-79
2023/12/18 06:00:20;;;;;;;0.50;0.30;;;13.40;99.90;;;;;;5133939;27;20078;-79
2023/12/18 06:02:46;;;;;;;0.82;0.40;;;13.50;99.90;;;;;;5133192;27;20027;-81
2023/12/18 06:05:12;;;;;;;1.25;0.20;;;13.50;99.90;;;;;;5133564;27;20413;-80
2023/12/18 06:07:38;;;;;;;1.27;0.30;;;13.50;99.90;;;;;;5133153;27;20023;-80
2023/12/18 06:10:05;;;;;;;0.70;0.20;;;13.50;99.90;;;;;;5133776;27;20058;-80
2023/12/18 06:12:31;;;;;;;0.13;0.13;;;13.60;99.90;;;;;;5134064;27;20031;-81
2023/12/18 06:14:57;;;;;;;0.60;0.50;;;13.60;99.90;;;;;;5133442;27;20049;-80
2023/12/18 06:17:23;;;;;;;1.38;0.40;;;13.60;99.90;;;;;;5133687;27;20019;-80
2023/12/18 06:19:49;;;;;;;0.52;0.15;;;13.60;99.90;;;;;;5133201;27;20383;-80
2023/12/18 06:22:15;;;;;;;0.30;0.30;;;13.60;99.90;;;;;;5133932;27;20172;-80
2023/12/18 06:24:41;;;;;;;0.40;0.20;;;13.70;99.90;;;;;;5132456;27;20091;-81
2023/12/18 06:27:07;;;;;;;0.32;0.20;;;13.70;99.90;;;;;;5151797;27;20027;-78
2023/12/18 06:29:32;;;;;;;0.77;0.40;;;13.70;99.90;;;;;;5139969;27;20038;-79
2023/12/18 06:31:58;;;;;;;0.75;0.32;;;13.70;99.90;;;;;;5133369;27;20030;-79
2023/12/18 06:34:24;;;;;;;0.55;0.32;;;13.70;99.90;;;;;;5133284;27;20539;-78
2023/12/18 06:36:50;;;;;;;0.50;0.43;;;13.70;99.90;;;;;;5132919;27;20046;-79
2023/12/18 06:39:15;;;;;;;1.02;0.30;;;13.70;99.90;;;;;;5133137;27;20106;-80
2023/12/18 06:41:41;;;;;;;0.40;0.25;;;13.70;99.90;;;;;;5132321;27;20072;-80
2023/12/18 06:44:07;;;;;;;1.42;0.35;;;13.70;99.90;;;;;;5132709;27;20050;-80
2023/12/18 06:46:34;;;;;;;1.48;0.45;;;13.70;99.90;;;;;;5132590;27;20095;-79
2023/12/18 06:49:03;;;;;;;1.50;0.60;;;13.70;99.90;;;;;;5132096;27;20626;-79
2023/12/18 06:51:29;;;;;;;1.20;0.40;;;13.60;99.90;;;;;;5132655;27;20440;-80
2023/12/18 06:53:54;;;;;;;0.50;0.40;;;13.60;99.90;;;;;;5132044;27;20035;-79
2023/12/18 06:56:20;;;;;;;0.93;0.30;;;13.60;99.90;;;;;;5132498;27;20118;-80
2023/12/18 06:58:46;;;;;;;0.65;0.40;;;13.60;99.90;;;;;;5132227;27;20383;-79
2023/12/18 07:01:15;;;;;;;0.55;0.40;;;13.60;99.90;;;;;;5133262;27;20039;-80
2023/12/18 07:03:41;;;;;;;1.23;0.30;;;13.60;99.90;;;;;;5113457;27;20027;-79
2023/12/18 07:06:07;;;;;;;0.30;0.20;;;13.60;99.90;;;;;;5132268;27;20026;-79
2023/12/18 07:08:33;;;;;;;1.95;0.45;;;13.60;99.90;;;;;;5132819;27;20111;-80
2023/12/18 07:10:58;;;;;;;1.02;0.38;;;13.60;99.90;;;;;;5131822;27;20023;-79
2023/12/18 07:13:25;;;;;;;1.23;0.45;;;13.60;99.90;;;;;;5132409;27;20031;-80
2023/12/18 07:15:50;;;;;;;0.90;0.57;;;13.60;99.90;;;;;;5131678;27;20372;-80
2023/12/18 07:18:17;;;;;;;3.10;1.05;;;13.50;99.90;;;;;;5132131;27;20098;-80
2023/12/18 07:20:43;;;;;;;1.30;0.68;;;13.50;99.90;;;;;;5132079;27;20019;-80
2023/12/18 07:23:10;;;;;;;0.98;0.40;;;13.50;99.90;;;;;;5132717;27;20032;-79
2023/12/18 07:25:37;;;;;;;0.63;0.40;;;13.40;99.90;;;;;;5133466;27;20117;-79
2023/12/18 07:28:09;;;;;;;1.92;0.60;;;13.40;99.90;;;;;;5112962;27;20024;-79
2023/12/18 07:30:37;;;;;;;0.85;0.52;;;13.40;99.90;;;;;;5131619;27;20103;-80
2023/12/18 07:33:04;;;;;;;0.68;0.40;;;13.40;99.90;;;;;;5131417;27;20119;-80
2023/12/18 07:35:30;;;;;;;1.65;0.88;;;13.30;99.90;;;;;;5132113;27;20038;-79
2023/12/18 07:37:55;;;;;;;2.17;0.60;;;13.30;99.90;;;;;;5131605;27;20019;-80
2023/12/18 07:40:21;;;;;;;3.10;0.70;;;13.30;99.90;;;;;;5131988;27;20023;-80
2023/12/18 07:42:47;;;;;;;1.15;0.47;;;13.20;99.90;;;;;;5131386;27;20027;-79
2023/12/18 07:45:13;;;;;;;0.45;0.30;;;13.20;99.90;;;;;;5131997;27;20035;-80
2023/12/18 07:47:40;;;;;;;0.80;0.45;;;13.20;99.90;;;;;;5113642;27;20512;-80
2023/12/18 07:50:07;;;;;;;1.23;0.60;;;13.20;99.90;;;;;;5112597;27;20023;-80
2023/12/18 07:52:34;;;;;;;1.23;0.45;;;13.10;99.90;;;;;;5131723;27;20034;-80
2023/12/18 07:55:00;;;;;;;2.03;0.45;;;13.20;99.90;;;;;;5131098;27;20023;-80
2023/12/18 07:57:25;;;;;;;1.40;0.50;;;13.10;99.90;;;;;;5130936;27;20030;-80
2023/12/18 07:59:52;;;;;;;0.40;0.40;;;13.10;99.90;;;;;;5131188;27;20043;-80
2023/12/18 08:02:17;;;;;;;0.32;0.30;;;13.10;99.90;;;;;;5131579;27;20072;-79
2023/12/18 08:04:43;;;;;;;0.57;0.50;;;13.10;99.90;;;;;;5130993;27;20024;-79
2023/12/18 08:07:09;;;;;;;1.65;0.43;;;13.10;99.90;;;;;;5131217;27;20058;-80
2023/12/18 08:09:34;;;;;;;0.57;0.50;;;13.10;99.90;;;;;;5131523;27;20035;-80
2023/12/18 08:12:00;;;;;;;0.47;0.40;;;13.10;99.90;;;;;;5130774;27;20455;-81
2023/12/18 08:14:26;;;;;;;0.55;0.55;;;13.10;99.90;;;;;;5113353;28;20031;-80
2023/12/18 08:16:52;;;;;;;2.25;0.60;;;13.10;99.90;;;;;;5130410;27;20102;-81
2023/12/18 08:19:17;;;;;;;1.17;0.35;;;13.10;99.90;;;;;;5131526;28;20046;-80
2023/12/18 08:21:44;;;;;;;0.32;0.30;;;13.10;99.90;;;;;;5134534;27;20023;-81
2023/12/18 08:24:10;;;;;;;0.98;0.55;;;13.10;99.90;;;;;;5137729;27;20179;-81
2023/12/18 08:26:36;;;;;;;0.60;0.60;;;13.20;99.90;;;;;;5138272;27;20442;-80
2023/12/18 08:29:02;;;;;;;0.98;0.52;;;13.20;99.90;;;;;;5138125;27;20379;-81
2023/12/18 08:31:28;;;;;;;1.00;0.60;;;13.20;99.90;;;;;;5139026;27;20030;-81
2023/12/18 08:33:53;;;;;;;1.90;0.93;;;13.20;99.90;;;;;;5138697;27;20122;-81
2023/12/18 08:36:19;;;;;;;0.82;0.70;;;13.20;99.90;;;;;;5138716;27;20544;-82
2023/12/18 08:38:45;;;;;;;1.60;0.90;;;13.20;99.90;;;;;;5138487;27;20031;-81
2023/12/18 08:41:11;;;;;;;1.77;0.73;;;13.20;99.90;;;;;;5140917;27;20463;-81
2023/12/18 08:43:36;;;;;;;1.15;0.80;;;13.20;99.90;;;;;;5139313;27;20384;-82
2023/12/18 08:46:02;;;;;;;2.45;0.75;;;13.20;99.90;;;;;;5137871;27;20068;-82
2023/12/18 08:48:28;;;;;;;2.33;0.70;;;13.20;99.90;;;;;;5138405;27;20097;-82
2023/12/18 08:50:53;;;;;;;0.52;0.40;;;13.20;99.90;;;;;;5137361;27;20023;-81
2023/12/18 08:53:19;;;;;;;0.90;0.60;;;13.20;99.90;;;;;;5119528;27;20042;-81
2023/12/18 08:55:45;;;;;;;0.40;0.40;;;13.20;99.90;;;;;;5138396;27;20047;-81
2023/12/18 08:58:11;;;;;;;0.60;0.60;;;13.20;99.90;;;;;;5137639;27;20023;-81
2023/12/18 09:00:37;;;;;;;1.55;0.70;;;13.20;99.90;;;;;;5142788;27;20407;-81
2023/12/18 09:03:04;;;;;;;1.48;0.65;;;13.20;99.90;;;;;;5150920;27;20030;-81
2023/12/18 09:05:30;;;;;;;1.45;0.68;;;13.20;99.90;;;;;;5149723;27;20019;-81
2023/12/18 09:07:56;;;;;;;3.00;0.75;;;13.20;99.90;;;;;;5139363;27;20054;-81
2023/12/18 09:10:22;;;;;;;3.15;0.50;;;13.20;99.90;;;;;;5139258;27;20401;-81
2023/12/18 09:12:52;;;;;;;2.10;0.80;;;13.20;99.90;;;;;;5119409;27;20027;-80
2023/12/18 09:15:18;;;;;;;0.90;0.60;;;13.20;99.90;;;;;;5119545;27;20372;-80
2023/12/18 09:17:44;;;;;;;0.80;0.80;;;13.20;99.90;;;;;;5119611;27;20379;-80
2023/12/18 09:20:11;;;;;;;3.17;1.30;;;13.20;99.90;;;;;;5118932;27;20057;-81
2023/12/18 09:22:37;;;;;;;2.40;1.10;;;13.20;99.90;;;;;;5137624;27;20055;-81
2023/12/18 09:25:03;;;;;;;1.27;1.00;;;13.20;99.90;;;;;;5137305;27;20061;-81
2023/12/18 09:27:29;;;;;;;1.63;1.10;;;13.10;99.90;;;;;;5137897;27;20024;-81
2023/12/18 09:29:55;;;;;;;0.85;0.75;;;13.10;99.90;;;;;;5137416;27;20096;-81
2023/12/18 09:32:20;;;;;;;2.08;1.00;;;13.10;99.90;;;;;;5136859;27;20030;-81
2023/12/18 09:34:46;;;;;;;5.10;1.02;;;13.10;99.90;;;;;;5115593;27;20032;-81
2023/12/18 09:37:12;;;;;;;1.60;0.90;;;13.10;99.90;;;;;;5134256;27;20027;-82
2023/12/18 09:39:41;;;;;;;1.40;0.90;;;13.10;99.90;;;;;;5116177;27;20023;-81
2023/12/18 09:42:10;;;;;;;0.98;0.70;;;13.00;99.90;;;;;;5133521;27;20071;-81
2023/12/18 09:44:36;;;;;;;1.33;0.63;;;13.00;99.90;;;;;;5134533;27;20041;-81
2023/12/18 09:47:02;;;;;;;2.47;0.60;;;13.10;99.90;;;;;;5134316;27;20490;-81
2023/12/18 09:49:28;;;;;;;2.15;0.63;;;13.10;99.90;;;;;;5116756;27;20028;-81
2023/12/18 09:51:56;;;;;;;0.73;0.45;;;13.10;99.90;;;;;;5134072;27;20023;-81
2023/12/18 09:54:23;;;;;;;0.85;0.52;;;13.20;99.90;;;;;;5134198;27;20034;-81
2023/12/18 09:56:50;;;;;;;1.20;0.63;;;13.20;99.90;;;;;;5134501;27;20156;-82
2023/12/18 09:59:19;;;;;;;1.85;0.55;;;13.20;99.90;;;;;;5133902;27;20047;-81
2023/12/18 10:01:45;;;;;;;1.73;0.45;;;13.30;99.90;;;;;;5134877;27;20106;-82
2023/12/18 10:04:12;;;;;;;1.50;0.50;;;13.30;99.90;;;;;;5133437;27;20024;-81
2023/12/18 10:06:37;;;;;;;0.75;0.43;;;13.30;99.90;;;;;;5133749;27;20087;-81
2023/12/18 10:09:09;;;;;;;1.52;0.57;;;13.40;99.90;;;;;;5133254;27;20023;-80
2023/12/18 10:11:35;;;;;;;0.73;0.35;;;13.40;99.90;;;;;;5134549;27;20150;-81
2023/12/18 10:14:01;;;;;;;0.38;0.38;;;13.50;99.90;;;;;;5133382;27;20483;-80
2023/12/18 10:16:27;;;;;;;1.30;0.40;;;13.50;99.90;;;;;;5134345;27;20020;-81
2023/12/18 10:18:55;;;;;;;1.48;0.30;;;13.50;99.90;;;;;;5134129;27;20114;-81
2023/12/18 10:21:24;;;;;;;0.32;0.20;;;13.60;99.90;;;;;;5134455;27;20023;-82
2023/12/18 10:23:54;;;;;;;0.30;0.30;;;13.60;99.90;;;;;;5133938;27;20368;-81
2023/12/18 10:26:21;;;;;;;0.30;0.30;;;13.60;99.90;;;;;;5115526;27;20118;-82
2023/12/18 10:28:51;;;;;;;1.00;0.20;;;13.70;99.90;;;;;;5115492;27;20111;-81
2023/12/18 10:31:17;;;;;;;1.00;0.15;;;13.70;99.90;;;;;;5133025;27;20027;-80
2023/12/18 10:33:43;;;;;;;0.88;0.22;;;13.70;99.90;;;;;;5133797;27;20035;-81
2023/12/18 10:36:09;;;;;;;0.35;0.20;;;13.80;99.90;;;;;;5134383;27;20019;-81
2023/12/18 10:38:38;;;;;;;1.30;0.32;;;13.80;99.90;;;;;;5133614;27;20385;-81
2023/12/18 10:41:04;;;;;;;0.38;0.25;;;13.80;99.90;;;;;;5132964;27;20024;-81
2023/12/18 10:43:35;;;;;;;0.47;0.30;;;13.80;99.90;;;;;;5133203;27;20035;-81
2023/12/18 10:46:02;;;;;;;0.80;0.20;;;13.80;99.90;;;;;;5132862;27;20016;-81
2023/12/18 10:48:29;;;;;;;0.57;0.22;;;13.80;99.90;;;;;;5138868;27;20034;-82
2023/12/18 10:50:59;;;;;;;0.80;0.80;;;13.80;99.90;;;;;;5151318;27;20050;-82
2023/12/18 10:53:26;;;;;;;1.23;0.60;;;13.80;99.90;;;;;;5152156;27;20038;-81
2023/12/18 10:55:54;;;;;;;0.90;0.52;;;13.80;99.90;;;;;;5135410;27;20039;-81
2023/12/18 10:58:20;;;;;;;1.67;0.50;;;13.80;99.90;;;;;;5132794;27;20019;-81
2023/12/18 11:00:48;;;;;;;0.73;0.60;;;13.80;99.90;;;;;;5133715;27;20059;-82
2023/12/18 11:03:18;;;;;;;0.57;0.50;;;13.80;99.90;;;;;;5133429;27;20295;-82
2023/12/18 11:05:46;;;;;;;1.50;0.70;;;13.80;99.90;;;;;;5133712;27;20061;-81
2023/12/18 11:08:12;;;;;;;0.50;0.50;;;13.80;99.90;;;;;;5133180;27;20109;-82
2023/12/18 11:10:38;;;;;;;0.47;0.47;;;13.70;99.90;;;;;;5136421;27;20027;-82
2023/12/18 11:13:36;;;;;;;0.73;0.45;;;13.80;99.90;;;;;;5135667;27;20043;-81
2023/12/18 11:16:42;;;;;;;1.85;0.50;;;13.80;99.90;;;;;;5119557;27;20043;-81
2023/12/18 11:19:37;;;;;;;0.50;0.30;;;13.80;99.90;;;;;;5131547;27;20031;-81
2023/12/18 11:22:04;;;;;;;0.60;0.50;;;13.80;99.90;;;;;;5099245;27;20113;-82
2023/12/18 11:24:37;;;;;;;1.38;0.65;;;13.70;99.90;;;;;;5133320;27;20033;-81
2023/12/18 11:27:07;;;;;;;0.73;0.60;;;13.80;99.90;;;;;;5132404;27;20071;-81
2023/12/18 11:29:45;;;;;;;1.85;0.73;;;13.80;99.90;;;;;;5132256;27;20480;-82
2023/12/18 11:32:12;;;;;;;1.60;0.90;;;13.70;99.90;;;;;;5132520;27;20068;-79
2023/12/18 11:34:40;;;;;;;2.05;0.90;;;13.80;99.90;;;;;;5132993;27;20052;-82
2023/12/18 11:37:11;;;;;;;0.68;0.68;;;13.80;99.90;;;;;;5131317;27;20412;-80
2023/12/18 11:39:40;;;;;;;1.30;0.95;;;13.80;99.90;;;;;;5132002;27;20041;-81
2023/12/18 11:42:07;;;;;;;0.70;0.70;;;13.80;99.90;;;;;;5131386;27;20034;-80
2023/12/18 11:44:36;;;;;;;1.92;0.90;;;13.80;99.90;;;;;;5131604;27;20050;-80
2023/12/18 11:47:03;;;;;;;1.13;0.70;;;13.80;99.90;;;;;;5131258;27;20026;-81
2023/12/18 11:49:30;;;;;;;0.75;0.75;;;13.90;99.90;;;;;;5131699;27;20209;-81
2023/12/18 11:51:58;;;;;;;1.23;0.60;;;13.90;99.90;;;;;;5131915;27;20027;-82
2023/12/18 11:54:26;;;;;;;1.10;0.80;;;13.90;99.90;;;;;;5131035;27;20053;-81
2023/12/18 11:56:52;;;;;;;0.73;0.60;;;13.90;99.90;;;;;;5130385;27;20380;-81
2023/12/18 11:59:22;;;;;;;2.13;0.75;;;13.90;99.90;;;;;;5091991;28;20051;-81
2023/12/18 12:01:50;;;;;;;2.17;0.80;;;13.90;99.90;;;;;;5111423;28;20032;-82
2023/12/18 12:04:16;;;;;;;1.13;0.75;;;13.90;99.90;;;;;;5110842;28;20046;-80
2023/12/18 12:06:44;;;;;;;1.48;0.68;;;14.00;99.90;;;;;;5116636;28;20073;-81
2023/12/18 12:09:10;;;;;;;0.70;0.63;;;14.00;99.90;;;;;;5110920;28;20026;-82
2023/12/18 12:11:36;;;;;;;0.85;0.60;;;14.00;99.90;;;;;;5111266;28;20027;-80
2023/12/18 12:14:02;;;;;;;0.93;0.60;;;14.00;99.90;;;;;;5110680;28;20141;-81
2023/12/18 12:16:28;;;;;;;1.30;0.77;;;14.00;99.90;;;;;;5110787;28;20032;-81
2023/12/18 12:18:58;;;;;;;1.17;0.73;;;14.00;99.90;;;;;;5110206;28;20112;-81
2023/12/18 12:21:24;;;;;;;1.52;0.70;;;14.10;99.90;;;;;;5111366;28;20032;-80
2023/12/18 12:23:50;;;;;;;0.40;0.40;;;14.00;99.90;;;;;;5110980;28;20050;-80
2023/12/18 12:26:18;;;;;;;2.45;0.52;;;14.10;99.90;;;;;;5110396;28;20032;-81
2023/12/18 12:28:43;;;;;;;2.67;0.60;;;14.10;99.90;;;;;;5110560;28;20031;-81
2023/12/18 12:31:09;;;;;;;1.30;0.47;;;14.10;99.90;;;;;;5110287;28;20020;-81
2023/12/18 12:33:42;;;;;;;1.42;0.70;;;14.10;99.90;;;;;;5124372;28;20087;-80
2023/12/18 12:36:08;;;;;;;2.33;0.75;;;14.10;99.90;;;;;;5128106;28;20031;-81
2023/12/18 12:38:40;;;;;;;0.77;0.73;;;14.10;99.90;;;;;;5120327;28;20046;-81
2023/12/18 12:41:06;;;;;;;0.98;0.50;;;14.10;99.90;;;;;;5110572;28;20026;-81
2023/12/18 12:43:32;;;;;;;1.27;0.77;;;14.10;99.90;;;;;;5109400;28;20434;-81